SIA7402 KLAX-RJGG
Flight info
| Callsign | SIA7402 |
|---|---|
| Flight time | N/A |
| Altitude | 36000 |
| Route | SUMMR2 MCKEY DCT LIBBO DCT BRINY DCT ALCOA DCT HEKAB DCT 40N140W 40N150W 40N160W 39N170W 37N180E 35N170E 3436N16500E 34N160E 34N150E MORAY OTR15 SMOLT Y824 DOLBA Y818 LIGNI Y821 UTIBO Y502 TOKIS Y50 OLTOM |
| Aircraft | B77L/H-SDE1E2E3FGHIJ2J3J4J5M1RWXY/LB1D1 |
Departure
| Time | 2026-05-08 07:06 |
|---|---|
| Airport | Los Angeles International Airport (KLAX) |
Arrival
| Time | N/A |
|---|---|
| Airport | Chubu Centrair International Airport (RJGG) |
| Time | Latitude | Longitude | Altitude | Speed | Heading |
|---|---|---|---|---|---|
| 2026-05-08 06:34 | 33.93343 | -118.39233 | 130 ft | 0 kts | 180° |
| 2026-05-08 06:54 | 33.93345 | -118.39233 | 130 ft | 2 kts | 180° |
| 2026-05-08 06:54 | 33.93371 | -118.39233 | 124 ft | 4 kts | 176° |
| 2026-05-08 06:54 | 33.93398 | -118.39236 | 124 ft | 4 kts | 172° |
| 2026-05-08 06:54 | 33.93424 | -118.39241 | 124 ft | 4 kts | 168° |
| 2026-05-08 06:55 | 33.93450 | -118.39249 | 124 ft | 4 kts | 162° |
| 2026-05-08 06:55 | 33.93476 | -118.39260 | 124 ft | 4 kts | 153° |
| 2026-05-08 06:55 | 33.93498 | -118.39277 | 124 ft | 4 kts | 130° |
| 2026-05-08 06:55 | 33.93507 | -118.39298 | 124 ft | 1 kts | 83° |
| 2026-05-08 06:59 | 33.93508 | -118.39289 | 124 ft | 3 kts | 83° |
| 2026-05-08 07:00 | 33.93512 | -118.39251 | 125 ft | 7 kts | 82° |
| 2026-05-08 07:00 | 33.93519 | -118.39188 | 129 ft | 9 kts | 83° |
| 2026-05-08 07:00 | 33.93527 | -118.39113 | 128 ft | 9 kts | 82° |
| 2026-05-08 07:00 | 33.93536 | -118.39031 | 126 ft | 10 kts | 83° |
| 2026-05-08 07:01 | 33.93545 | -118.38939 | 129 ft | 12 kts | 83° |
| 2026-05-08 07:01 | 33.93556 | -118.38828 | 130 ft | 14 kts | 83° |
| 2026-05-08 07:01 | 33.93569 | -118.38701 | 130 ft | 16 kts | 83° |
| 2026-05-08 07:01 | 33.93583 | -118.38558 | 127 ft | 18 kts | 83° |
| 2026-05-08 07:02 | 33.93598 | -118.38416 | 126 ft | 10 kts | 82° |
| 2026-05-08 07:02 | 33.93609 | -118.38334 | 125 ft | 10 kts | 72° |
| 2026-05-08 07:02 | 33.93661 | -118.38285 | 125 ft | 10 kts | 9° |
| 2026-05-08 07:02 | 33.93731 | -118.38289 | 127 ft | 10 kts | 353° |
| 2026-05-08 07:03 | 33.93800 | -118.38299 | 127 ft | 10 kts | 353° |
| 2026-05-08 07:03 | 33.93861 | -118.38309 | 127 ft | 7 kts | 352° |
| 2026-05-08 07:03 | 33.93914 | -118.38317 | 127 ft | 9 kts | 352° |
| 2026-05-08 07:03 | 33.93985 | -118.38327 | 127 ft | 11 kts | 355° |
| 2026-05-08 07:04 | 33.94048 | -118.38287 | 126 ft | 11 kts | 65° |
| 2026-05-08 07:04 | 33.94063 | -118.38196 | 130 ft | 11 kts | 82° |
| 2026-05-08 07:04 | 33.94073 | -118.38104 | 130 ft | 11 kts | 83° |
| 2026-05-08 07:04 | 33.94061 | -118.38016 | 126 ft | 11 kts | 132° |
| 2026-05-08 07:05 | 33.93994 | -118.38013 | 126 ft | 5 kts | 216° |
| 2026-05-08 07:05 | 33.93984 | -118.38037 | 125 ft | 0 kts | 259° |
| 2026-05-08 07:05 | 33.93979 | -118.38090 | 130 ft | 30 kts | 263° |
| 2026-05-08 07:05 | 33.93917 | -118.38677 | 130 ft | 111 kts | 263° |
| 2026-05-08 07:06 | 33.93791 | -118.39903 | 129 ft | 182 kts | 263° |
| 2026-05-08 07:06 | 33.93614 | -118.41617 | 268 ft | 216 kts | 264° |
| 2026-05-08 07:06 | 33.93461 | -118.43387 | 1058 ft | 211 kts | 265° |
| 2026-05-08 07:06 | 33.93318 | -118.45181 | 1657 ft | 222 kts | 264° |
| 2026-05-08 07:07 | 33.93119 | -118.47103 | 1994 ft | 242 kts | 264° |
| 2026-05-08 07:07 | 33.92931 | -118.49198 | 2194 ft | 262 kts | 265° |
| 2026-05-08 07:07 | 33.92738 | -118.51414 | 2723 ft | 270 kts | 265° |
| 2026-05-08 07:07 | 33.92546 | -118.53683 | 3380 ft | 274 kts | 266° |
| 2026-05-08 07:08 | 33.92358 | -118.55968 | 4078 ft | 274 kts | 267° |
| 2026-05-08 07:08 | 33.92170 | -118.58258 | 4805 ft | 275 kts | 268° |
| 2026-05-08 07:08 | 33.91982 | -118.60558 | 5477 ft | 277 kts | 268° |
| 2026-05-08 07:08 | 33.91794 | -118.62870 | 6129 ft | 278 kts | 268° |
| 2026-05-08 07:09 | 33.91711 | -118.65179 | 6733 ft | 279 kts | 272° |
| 2026-05-08 07:09 | 33.91723 | -118.67499 | 7270 ft | 282 kts | 273° |
| 2026-05-08 07:09 | 33.91740 | -118.69869 | 7889 ft | 284 kts | 271° |
| 2026-05-08 07:09 | 33.91732 | -118.72258 | 8445 ft | 288 kts | 270° |
| 2026-05-08 07:10 | 33.91720 | -118.74699 | 8980 ft | 293 kts | 270° |
| 2026-05-08 07:10 | 33.91713 | -118.77161 | 9571 ft | 295 kts | 270° |
| 2026-05-08 07:10 | 33.91706 | -118.79642 | 10153 ft | 298 kts | 270° |
| 2026-05-08 07:10 | 33.91697 | -118.82190 | 10416 ft | 314 kts | 270° |
| 2026-05-08 07:11 | 33.91709 | -118.84900 | 10564 ft | 333 kts | 272° |
| 2026-05-08 07:11 | 33.91797 | -118.87762 | 10711 ft | 352 kts | 273° |
| 2026-05-08 07:11 | 33.91907 | -118.90777 | 10894 ft | 369 kts | 273° |
| 2026-05-08 07:11 | 33.92011 | -118.93902 | 11290 ft | 379 kts | 272° |
| 2026-05-08 07:12 | 33.92107 | -118.97063 | 11763 ft | 386 kts | 272° |
| 2026-05-08 07:12 | 33.92234 | -119.00307 | 12365 ft | 386 kts | 277° |
| 2026-05-08 07:12 | 33.92989 | -119.03417 | 12739 ft | 393 kts | 300° |
| 2026-05-08 07:12 | 33.94519 | -119.06160 | 13182 ft | 394 kts | 304° |
| 2026-05-08 07:13 | 33.96041 | -119.08962 | 13643 ft | 401 kts | 302° |
| 2026-05-08 07:13 | 33.97514 | -119.11833 | 14197 ft | 405 kts | 302° |
| 2026-05-08 07:13 | 33.98982 | -119.14712 | 14826 ft | 405 kts | 302° |
| 2026-05-08 07:13 | 34.00462 | -119.17567 | 15435 ft | 403 kts | 305° |
| 2026-05-08 07:14 | 34.02356 | -119.20110 | 15790 ft | 405 kts | 324° |
| 2026-05-08 07:14 | 34.04683 | -119.22029 | 16106 ft | 411 kts | 327° |
| 2026-05-08 07:14 | 34.07019 | -119.23926 | 16611 ft | 414 kts | 326° |
| 2026-05-08 07:14 | 34.09389 | -119.25895 | 17264 ft | 414 kts | 325° |
| 2026-05-08 07:15 | 34.11768 | -119.27905 | 17887 ft | 415 kts | 325° |
| 2026-05-08 07:15 | 34.14117 | -119.29910 | 18409 ft | 418 kts | 325° |
| 2026-05-08 07:15 | 34.16519 | -119.31974 | 18832 ft | 422 kts | 325° |
| 2026-05-08 07:15 | 34.18919 | -119.34043 | 19275 ft | 425 kts | 325° |
| 2026-05-08 07:16 | 34.21338 | -119.36131 | 19729 ft | 428 kts | 325° |
| 2026-05-08 07:16 | 34.23774 | -119.38235 | 20179 ft | 432 kts | 325° |
| 2026-05-08 07:16 | 34.26194 | -119.40327 | 20615 ft | 435 kts | 325° |
| 2026-05-08 07:16 | 34.28647 | -119.42448 | 21058 ft | 438 kts | 325° |
| 2026-05-08 07:17 | 34.31128 | -119.44595 | 21482 ft | 441 kts | 324° |
| 2026-05-08 07:17 | 34.33644 | -119.46775 | 21911 ft | 444 kts | 324° |
| 2026-05-08 07:17 | 34.36170 | -119.48963 | 22319 ft | 447 kts | 324° |
| 2026-05-08 07:17 | 34.38681 | -119.51140 | 22725 ft | 450 kts | 324° |
| 2026-05-08 07:18 | 34.41216 | -119.53384 | 23162 ft | 453 kts | 321° |
| 2026-05-08 07:18 | 34.43460 | -119.56024 | 23483 ft | 457 kts | 311° |
| 2026-05-08 07:18 | 34.45535 | -119.59002 | 23810 ft | 461 kts | 309° |
| 2026-05-08 07:18 | 34.47532 | -119.61984 | 24184 ft | 462 kts | 309° |
| 2026-05-08 07:19 | 34.49561 | -119.65015 | 24559 ft | 464 kts | 309° |
| 2026-05-08 07:19 | 34.51613 | -119.68043 | 24936 ft | 466 kts | 310° |
| 2026-05-08 07:19 | 34.53701 | -119.71079 | 25318 ft | 468 kts | 310° |
| 2026-05-08 07:19 | 34.55806 | -119.74106 | 25671 ft | 470 kts | 310° |
| 2026-05-08 07:20 | 34.57919 | -119.77126 | 26027 ft | 472 kts | 310° |
| 2026-05-08 07:20 | 34.60042 | -119.80149 | 26395 ft | 474 kts | 310° |
| 2026-05-08 07:20 | 34.62165 | -119.83172 | 26737 ft | 476 kts | 310° |
| 2026-05-08 07:20 | 34.64314 | -119.86234 | 27064 ft | 479 kts | 310° |
| 2026-05-08 07:21 | 34.66453 | -119.89287 | 27371 ft | 482 kts | 310° |
| 2026-05-08 07:21 | 34.68640 | -119.92411 | 27715 ft | 484 kts | 310° |
| 2026-05-08 07:21 | 34.70825 | -119.95538 | 28045 ft | 486 kts | 310° |
| 2026-05-08 07:21 | 34.73017 | -119.98679 | 28384 ft | 488 kts | 310° |
| 2026-05-08 07:22 | 34.75218 | -120.01835 | 28769 ft | 489 kts | 310° |
| 2026-05-08 07:22 | 34.77416 | -120.04990 | 29088 ft | 491 kts | 310° |
| 2026-05-08 07:22 | 34.79632 | -120.08173 | 29378 ft | 493 kts | 310° |
| 2026-05-08 07:22 | 34.81850 | -120.11363 | 29638 ft | 495 kts | 310° |
| 2026-05-08 07:23 | 34.84096 | -120.14595 | 29852 ft | 499 kts | 310° |
| 2026-05-08 07:23 | 34.86327 | -120.17808 | 30139 ft | 500 kts | 310° |
| 2026-05-08 07:23 | 34.88540 | -120.20999 | 30540 ft | 497 kts | 310° |
| 2026-05-08 07:23 | 34.90764 | -120.24209 | 31042 ft | 492 kts | 310° |
| 2026-05-08 07:24 | 34.92961 | -120.27382 | 31550 ft | 487 kts | 309° |
| 2026-05-08 07:24 | 34.95135 | -120.30525 | 31928 ft | 485 kts | 309° |
| 2026-05-08 07:24 | 34.97296 | -120.33653 | 32199 ft | 484 kts | 309° |
| 2026-05-08 07:24 | 34.99469 | -120.36800 | 32459 ft | 484 kts | 309° |
| 2026-05-08 07:25 | 35.01640 | -120.39947 | 32756 ft | 483 kts | 309° |
| 2026-05-08 07:25 | 35.03799 | -120.43081 | 33082 ft | 480 kts | 310° |
| 2026-05-08 07:25 | 35.08073 | -120.49291 | 33616 ft | 479 kts | 310° |
| 2026-05-08 07:26 | 35.10188 | -120.52369 | 33654 ft | 482 kts | 310° |
| 2026-05-08 07:26 | 35.14505 | -120.58658 | 33904 ft | 485 kts | 310° |
| 2026-05-08 07:26 | 35.16686 | -120.61840 | 34099 ft | 485 kts | 310° |
| 2026-05-08 07:27 | 35.18848 | -120.64997 | 34238 ft | 485 kts | 310° |
| 2026-05-08 07:27 | 35.22461 | -120.70280 | 34382 ft | 487 kts | 309° |
| 2026-05-08 07:28 | 35.26817 | -120.76659 | 34548 ft | 489 kts | 309° |
| 2026-05-08 07:28 | 35.29005 | -120.79868 | 34651 ft | 490 kts | 309° |
| 2026-05-08 07:28 | 35.31177 | -120.83056 | 34751 ft | 490 kts | 309° |
| 2026-05-08 07:29 | 35.35550 | -120.89484 | 34898 ft | 492 kts | 309° |
| 2026-05-08 07:29 | 35.39904 | -120.95898 | 35038 ft | 493 kts | 309° |
| 2026-05-08 07:30 | 35.44298 | -121.02382 | 35158 ft | 495 kts | 309° |
| 2026-05-08 07:30 | 35.48702 | -121.08889 | 35272 ft | 495 kts | 309° |
| 2026-05-08 07:31 | 35.53144 | -121.15311 | 35397 ft | 496 kts | 310° |
| 2026-05-08 07:31 | 35.57669 | -121.21782 | 35497 ft | 497 kts | 310° |
| 2026-05-08 07:32 | 35.62151 | -121.28224 | 35596 ft | 497 kts | 310° |
| 2026-05-08 07:32 | 35.66630 | -121.34692 | 35708 ft | 498 kts | 310° |
| 2026-05-08 07:33 | 35.71122 | -121.41196 | 35731 ft | 500 kts | 310° |
| 2026-05-08 07:33 | 35.75628 | -121.47732 | 35799 ft | 500 kts | 310° |
| 2026-05-08 07:34 | 35.80127 | -121.54269 | 35896 ft | 500 kts | 310° |
| 2026-05-08 07:34 | 35.84597 | -121.60776 | 36013 ft | 499 kts | 310° |
| 2026-05-08 07:35 | 35.89073 | -121.67306 | 36085 ft | 497 kts | 310° |
| 2026-05-08 07:35 | 35.93523 | -121.73810 | 36086 ft | 497 kts | 310° |
| 2026-05-08 07:36 | 35.98083 | -121.80218 | 36096 ft | 496 kts | 316° |
| 2026-05-08 07:36 | 36.03514 | -121.85457 | 36116 ft | 495 kts | 327° |
| 2026-05-08 07:37 | 36.09591 | -121.89443 | 36117 ft | 495 kts | 333° |
| 2026-05-08 07:37 | 36.15760 | -121.93205 | 36113 ft | 494 kts | 333° |
| 2026-05-08 07:38 | 36.21922 | -121.97012 | 36124 ft | 494 kts | 332° |
| 2026-05-08 07:38 | 36.28003 | -122.00818 | 36128 ft | 493 kts | 332° |
| 2026-05-08 07:39 | 36.34116 | -122.04666 | 36127 ft | 493 kts | 332° |
| 2026-05-08 07:39 | 36.40230 | -122.08521 | 36144 ft | 492 kts | 333° |
| 2026-05-08 07:40 | 36.46340 | -122.12377 | 36145 ft | 491 kts | 332° |
| 2026-05-08 07:40 | 36.52419 | -122.16219 | 36151 ft | 490 kts | 333° |
| 2026-05-08 07:41 | 36.58456 | -122.20042 | 36158 ft | 489 kts | 333° |
| 2026-05-08 07:41 | 36.64546 | -122.23905 | 36158 ft | 489 kts | 332° |
| 2026-05-08 07:42 | 36.70579 | -122.27739 | 36141 ft | 489 kts | 332° |
| 2026-05-08 07:42 | 36.76631 | -122.31593 | 36152 ft | 488 kts | 332° |
| 2026-05-08 07:43 | 36.82673 | -122.35446 | 36155 ft | 488 kts | 333° |
| 2026-05-08 07:43 | 36.88730 | -122.39317 | 36154 ft | 487 kts | 333° |
| 2026-05-08 07:44 | 36.94772 | -122.43184 | 36138 ft | 487 kts | 333° |
| 2026-05-08 07:44 | 37.00807 | -122.47054 | 36148 ft | 487 kts | 333° |
| 2026-05-08 07:45 | 37.06782 | -122.50892 | 36146 ft | 486 kts | 333° |
| 2026-05-08 07:45 | 37.12802 | -122.54767 | 36153 ft | 486 kts | 333° |
| 2026-05-08 07:46 | 37.18822 | -122.58648 | 36154 ft | 486 kts | 333° |
| 2026-05-08 07:46 | 37.24822 | -122.62524 | 36146 ft | 485 kts | 333° |
| 2026-05-08 07:46 | 37.27652 | -122.64808 | 36124 ft | 484 kts | 318° |
| 2026-05-08 07:47 | 37.29866 | -122.67960 | 36176 ft | 484 kts | 305° |
| 2026-05-08 07:47 | 37.31504 | -122.71691 | 36166 ft | 487 kts | 293° |
| 2026-05-08 07:47 | 37.32457 | -122.75753 | 36186 ft | 489 kts | 285° |
| 2026-05-08 07:48 | 37.33861 | -122.84090 | 36162 ft | 490 kts | 284° |
| 2026-05-08 07:48 | 37.35256 | -122.92484 | 36150 ft | 490 kts | 285° |
| 2026-05-08 07:49 | 37.36711 | -123.00872 | 36151 ft | 490 kts | 285° |
| 2026-05-08 07:49 | 37.38193 | -123.09232 | 36157 ft | 489 kts | 285° |
| 2026-05-08 07:50 | 37.39675 | -123.17594 | 36143 ft | 489 kts | 286° |
| 2026-05-08 07:50 | 37.41147 | -123.25945 | 36154 ft | 489 kts | 285° |
| 2026-05-08 07:51 | 37.42609 | -123.34292 | 36161 ft | 489 kts | 285° |
| 2026-05-08 07:51 | 37.44059 | -123.42606 | 36160 ft | 489 kts | 285° |
| 2026-05-08 07:52 | 37.45509 | -123.50963 | 36165 ft | 489 kts | 285° |
| 2026-05-08 07:52 | 37.46956 | -123.59335 | 36170 ft | 489 kts | 285° |
| 2026-05-08 07:53 | 37.48397 | -123.67712 | 36166 ft | 489 kts | 285° |
| 2026-05-08 07:53 | 37.49830 | -123.76080 | 36163 ft | 489 kts | 285° |
| 2026-05-08 07:54 | 37.51255 | -123.84439 | 36172 ft | 488 kts | 285° |
| 2026-05-08 07:54 | 37.52664 | -123.92742 | 36172 ft | 488 kts | 285° |
| 2026-05-08 07:55 | 37.54075 | -124.01091 | 36171 ft | 488 kts | 285° |
| 2026-05-08 07:55 | 37.55478 | -124.09436 | 36178 ft | 488 kts | 285° |
| 2026-05-08 07:56 | 37.56883 | -124.17826 | 36182 ft | 488 kts | 285° |
| 2026-05-08 07:56 | 37.58273 | -124.26166 | 36177 ft | 488 kts | 284° |
| 2026-05-08 07:57 | 37.59655 | -124.34499 | 36191 ft | 487 kts | 284° |
| 2026-05-08 07:57 | 37.61035 | -124.42854 | 36191 ft | 487 kts | 284° |
| 2026-05-08 07:58 | 37.62415 | -124.51247 | 36181 ft | 487 kts | 284° |
| 2026-05-08 07:58 | 37.63784 | -124.59621 | 36195 ft | 487 kts | 284° |
| 2026-05-08 07:59 | 37.65144 | -124.67970 | 36198 ft | 487 kts | 284° |
| 2026-05-08 07:59 | 37.66496 | -124.76313 | 36196 ft | 487 kts | 284° |
| 2026-05-08 08:00 | 37.67836 | -124.84619 | 36211 ft | 486 kts | 283° |
| 2026-05-08 08:00 | 37.69182 | -124.93004 | 36205 ft | 486 kts | 283° |
| 2026-05-08 08:01 | 37.70522 | -125.01395 | 36203 ft | 486 kts | 283° |
| 2026-05-08 08:01 | 37.71841 | -125.09692 | 36206 ft | 485 kts | 283° |
| 2026-05-08 08:02 | 37.73162 | -125.18038 | 36211 ft | 484 kts | 283° |
| 2026-05-08 08:02 | 37.74475 | -125.26378 | 36207 ft | 484 kts | 283° |
| 2026-05-08 08:03 | 37.75786 | -125.34740 | 36210 ft | 483 kts | 283° |
| 2026-05-08 08:03 | 37.77076 | -125.43011 | 36215 ft | 482 kts | 283° |
| 2026-05-08 08:04 | 37.78371 | -125.51355 | 36213 ft | 481 kts | 283° |
| 2026-05-08 08:04 | 37.79643 | -125.59594 | 36230 ft | 480 kts | 282° |
| 2026-05-08 08:05 | 37.80917 | -125.67883 | 36220 ft | 479 kts | 282° |
| 2026-05-08 08:05 | 37.82182 | -125.76148 | 36214 ft | 478 kts | 282° |
| 2026-05-08 08:06 | 37.83475 | -125.84407 | 36223 ft | 477 kts | 285° |
| 2026-05-08 08:06 | 37.85191 | -125.92498 | 36227 ft | 476 kts | 286° |
| 2026-05-08 08:07 | 37.86948 | -126.00527 | 36226 ft | 475 kts | 286° |
| 2026-05-08 08:07 | 37.88692 | -126.08588 | 36228 ft | 475 kts | 286° |
| 2026-05-08 08:08 | 37.90419 | -126.16658 | 36231 ft | 475 kts | 286° |
| 2026-05-08 08:08 | 37.92140 | -126.24759 | 36228 ft | 475 kts | 285° |
| 2026-05-08 08:09 | 37.93840 | -126.32789 | 36237 ft | 475 kts | 285° |
| 2026-05-08 08:09 | 37.95548 | -126.40882 | 36230 ft | 475 kts | 285° |
| 2026-05-08 08:10 | 37.97247 | -126.48966 | 36230 ft | 474 kts | 285° |
| 2026-05-08 08:10 | 37.98940 | -126.57049 | 36235 ft | 474 kts | 285° |
| 2026-05-08 08:11 | 38.00628 | -126.65135 | 36242 ft | 474 kts | 285° |
| 2026-05-08 08:11 | 38.02296 | -126.73159 | 36235 ft | 474 kts | 285° |
| 2026-05-08 08:12 | 38.03974 | -126.81262 | 36230 ft | 474 kts | 285° |
| 2026-05-08 08:12 | 38.05642 | -126.89347 | 36236 ft | 473 kts | 285° |
| 2026-05-08 08:13 | 38.07303 | -126.97424 | 36249 ft | 473 kts | 284° |
| 2026-05-08 08:13 | 38.08963 | -127.05532 | 36241 ft | 473 kts | 284° |
| 2026-05-08 08:14 | 38.10607 | -127.13588 | 36239 ft | 473 kts | 284° |
| 2026-05-08 08:14 | 38.12250 | -127.21675 | 36239 ft | 473 kts | 284° |
| 2026-05-08 08:15 | 38.13889 | -127.29769 | 36249 ft | 472 kts | 284° |
| 2026-05-08 08:15 | 38.15511 | -127.37812 | 36243 ft | 472 kts | 284° |
| 2026-05-08 08:16 | 38.17130 | -127.45872 | 36243 ft | 471 kts | 284° |
| 2026-05-08 08:16 | 38.18486 | -127.52645 | 36238 ft | 471 kts | 284° |
| 2026-05-08 08:17 | 38.20083 | -127.60646 | 36243 ft | 470 kts | 284° |
| 2026-05-08 08:17 | 38.21670 | -127.68636 | 36243 ft | 470 kts | 284° |
| 2026-05-08 08:18 | 38.23266 | -127.76696 | 36243 ft | 470 kts | 284° |
| 2026-05-08 08:18 | 38.24855 | -127.84754 | 36243 ft | 469 kts | 283° |